Accueil
METAR-TAF:

METAR-TAF

Aéroports :

Lorient, France

Aéroport de Lorient-Bretagne-Sud - BAN Lann-Bihoué

latitude: 47-46N, longitude: 003-27W, altitude: 52 m

Observation

Le bulletin a été fait il y a 27 minutes, à 12:00 UTC
Vent 11 kt de est/nord-est
Température 5°C
Humidité 52%
Pression 1015 hPa
Visibilité 10 km ou plus
pas de nuages en-dessous de 1500 mètres et pas de cumulonimbus.

METAR: LFRH 231200Z AUTO 07011KT CAVOK 05/M04 Q1015 NOSIG

Heure: 13:27 (12:27 UTC)

Prévision

Le bulletin a été fait il y a 1 heure et 27 minutes, à 11:00 UTC
Prévision valable du 23 à 12 UTC au 24 à 12 UTC
Vent 12 kt de est/nord-est
Visibilité 10 km ou plus
pas de nuages en-dessous de 1500 mètres et pas de cumulonimbus.
Probabilité 30% :
Temporairement
du 24 à 06 UTC au 24 à 09 UTC
Visibilité: 5000 m
brume

TAF: LFRH 231100Z 2312/2412 07012KT CAVOK PROB30 TEMPO 2406/2409 5000 BR

Observations et prévisions météorologiques de plus de 4000 aéroports (messages METAR et TAF).

Les stations disponibles sont représentées par des disques jaunes et rouges sur la carte.

Passer la souris dessus pour voir le nom de la station.

Cliquer dessus pour voir les observations et prévisions météorologiques.

Pour changer de carte: cliquez sur les boutons verts avec une croix noire pour zoomer, sur le bouton vert avec un tiret pour effectuer un zoom arrière, ou sur les flèches vertes pour les cartes adjacentes.


METAR-TAF: